createdAt,value
2018-09-21T00:02:41.424Z,66.02
2018-09-21T00:06:44.957Z,66.00
2018-09-21T00:10:48.417Z,66.93
2018-09-21T00:14:51.979Z,66.62
2018-09-21T00:18:55.629Z,66.81
2018-09-21T00:22:59.066Z,66.69
2018-09-21T00:27:02.578Z,66.72
2018-09-21T00:31:06.668Z,67.04
2018-09-21T00:35:10.191Z,66.56
2018-09-21T00:39:13.685Z,67.32
2018-09-21T00:43:17.430Z,66.64
2018-09-21T00:47:20.862Z,66.68
2018-09-21T00:51:25.670Z,67.06
2018-09-21T00:55:29.130Z,66.57
2018-09-21T00:59:32.621Z,66.68
2018-09-21T01:03:36.100Z,67.48
2018-09-21T01:07:39.692Z,67.16
2018-09-21T01:11:43.291Z,67.09
2018-09-21T01:15:46.833Z,66.79
2018-09-21T01:19:50.548Z,67.23
2018-09-21T01:23:54.143Z,66.79
2018-09-21T01:27:57.651Z,66.87
2018-09-21T01:32:01.379Z,66.59
2018-09-21T01:36:04.842Z,66.21
2018-09-21T01:40:08.797Z,66.61
2018-09-21T01:44:12.353Z,66.48
2018-09-21T01:48:15.855Z,66.76
2018-09-21T01:52:19.438Z,66.91
2018-09-21T01:56:22.919Z,67.14
2018-09-21T02:00:26.397Z,67.05
2018-09-21T02:04:35.178Z,66.90
2018-09-21T02:08:38.694Z,67.21
2018-09-21T02:12:42.454Z,67.52
2018-09-21T02:16:46.119Z,67.92
2018-09-21T02:20:49.703Z,67.35
2018-09-21T02:24:53.195Z,67.54
2018-09-21T02:28:56.701Z,67.36
2018-09-21T02:33:00.178Z,67.34
2018-09-21T02:37:03.666Z,67.89
2018-09-21T02:41:08.013Z,67.12
2018-09-21T02:45:11.522Z,67.96
2018-09-21T02:49:14.956Z,67.40
2018-09-21T02:53:18.540Z,67.11
2018-09-21T02:57:22.037Z,67.29
2018-09-21T03:01:25.546Z,67.65
2018-09-21T03:05:29.443Z,67.99
2018-09-21T03:09:32.926Z,67.97
2018-09-21T03:13:36.502Z,68.00
2018-09-21T03:17:39.978Z,67.44
2018-09-21T03:21:43.598Z,68.05
2018-09-21T03:25:47.213Z,68.04
2018-09-21T03:29:50.743Z,67.52
2018-09-21T03:33:54.317Z,67.31
2018-09-21T03:37:57.792Z,67.56
2018-09-21T03:42:01.649Z,67.87
2018-09-21T03:46:05.152Z,68.28
2018-09-21T03:50:08.778Z,67.80
2018-09-21T03:54:12.353Z,68.28
2018-09-21T03:58:15.841Z,68.73
2018-09-21T04:02:19.462Z,68.80
2018-09-21T04:06:23.106Z,68.91
2018-09-21T04:10:26.622Z,68.87
2018-09-21T04:14:30.091Z,68.99
2018-09-21T04:18:33.554Z,68.36
2018-09-21T04:22:37.173Z,69.04
2018-09-21T04:26:40.651Z,68.81
2018-09-21T04:30:44.263Z,68.44
2018-09-21T04:34:47.786Z,68.62
2018-09-21T04:38:51.326Z,68.66
2018-09-21T04:42:54.815Z,68.53
2018-09-21T04:46:58.399Z,68.49
2018-09-21T04:51:01.960Z,68.95
2018-09-21T04:55:05.414Z,68.72
2018-09-21T04:59:09.362Z,69.02
2018-09-21T05:03:12.886Z,69.23
2018-09-21T05:07:16.349Z,69.21
2018-09-21T05:11:19.922Z,69.61
2018-09-21T05:15:23.491Z,69.73
2018-09-21T05:19:27.102Z,70.21
2018-09-21T05:23:30.726Z,69.87
2018-09-21T05:27:34.142Z,69.57
2018-09-21T05:31:37.652Z,69.99
2018-09-21T05:35:42.233Z,70.00
2018-09-21T05:39:45.793Z,70.04
2018-09-21T05:43:50.302Z,70.50
2018-09-21T05:47:53.829Z,70.69
2018-09-21T05:51:57.356Z,70.68
2018-09-21T05:56:00.932Z,70.93
2018-09-21T06:00:04.462Z,70.51
2018-09-21T06:04:08.285Z,70.88
2018-09-21T06:08:11.798Z,71.64
2018-09-21T06:12:15.281Z,71.09
2018-09-21T06:16:19.220Z,71.47
2018-09-21T06:20:22.678Z,71.51
2018-09-21T06:24:26.349Z,71.30
2018-09-21T06:28:29.929Z,71.00
2018-09-21T06:32:33.398Z,71.26
2018-09-21T06:36:36.847Z,71.72
2018-09-21T06:40:40.372Z,71.72
2018-09-21T06:44:43.950Z,71.83
2018-09-21T06:48:47.450Z,71.53
2018-09-21T06:52:50.903Z,71.35
2018-09-21T06:56:54.486Z,71.64
2018-09-21T07:00:58.089Z,71.75
2018-09-21T07:05:06.838Z,71.09
2018-09-21T07:09:13.334Z,71.25
2018-09-21T07:13:16.980Z,71.08
2018-09-21T07:17:20.507Z,70.53
2018-09-21T07:21:24.334Z,70.95
2018-09-21T07:25:27.989Z,70.61
2018-09-21T07:29:31.414Z,70.47
2018-09-21T07:33:35.017Z,69.41
2018-09-21T07:37:38.710Z,69.39
2018-09-21T07:41:42.119Z,69.10
2018-09-21T07:45:45.606Z,67.89
2018-09-21T07:49:49.219Z,68.05
2018-09-21T07:53:52.813Z,66.96
2018-09-21T07:57:56.347Z,67.61
2018-09-21T08:02:00.434Z,66.26
2018-09-21T08:06:03.937Z,66.29
2018-09-21T08:10:07.823Z,66.17
2018-09-21T08:14:11.416Z,64.92
2018-09-21T08:18:14.909Z,64.66
2018-09-21T08:22:18.424Z,64.79
2018-09-21T08:26:21.940Z,63.84
2018-09-21T08:30:25.647Z,63.36
2018-09-21T08:34:29.109Z,62.80
2018-09-21T08:38:32.617Z,62.36
2018-09-21T08:42:36.396Z,62.46
2018-09-21T08:46:40.539Z,62.06
2018-09-21T08:50:44.008Z,61.81
2018-09-21T08:54:47.490Z,61.38
2018-09-21T08:58:51.512Z,61.15
2018-09-21T09:02:55.037Z,60.84
2018-09-21T09:06:58.551Z,61.20
2018-09-21T09:11:02.098Z,60.50
2018-09-21T09:15:05.580Z,59.39
2018-09-21T09:19:09.448Z,59.53
2018-09-21T09:23:13.166Z,59.23
2018-09-21T09:27:16.740Z,58.24
2018-09-21T09:31:21.302Z,57.93
2018-09-21T09:35:24.784Z,57.83
2018-09-21T09:39:28.291Z,57.43
2018-09-21T09:43:31.914Z,56.78
2018-09-21T09:47:35.612Z,55.30
2018-09-21T09:51:39.076Z,56.37
2018-09-21T09:55:42.562Z,55.47
2018-09-21T09:59:46.094Z,55.60
2018-09-21T10:03:49.600Z,55.51
2018-09-21T10:07:53.100Z,56.38
2018-09-21T10:11:56.628Z,55.66
2018-09-21T10:16:00.076Z,55.10
2018-09-21T10:20:03.643Z,54.45
2018-09-21T10:24:07.268Z,54.41
2018-09-21T10:28:10.856Z,53.04
2018-09-21T10:32:14.310Z,53.21
2018-09-21T10:36:17.845Z,52.81
2018-09-21T10:40:21.278Z,53.03
2018-09-21T10:44:24.866Z,51.75
2018-09-21T10:48:28.513Z,50.41
2018-09-21T10:52:32.197Z,50.58
2018-09-21T10:56:35.747Z,50.15
2018-09-21T11:00:39.505Z,50.27
2018-09-21T11:04:42.983Z,49.46
2018-09-21T11:08:46.454Z,49.01
2018-09-21T11:12:50.005Z,49.50
2018-09-21T11:16:53.535Z,48.22
2018-09-21T11:20:57.043Z,47.74
2018-09-21T11:25:00.523Z,46.16
2018-09-21T11:29:04.211Z,47.21
2018-09-21T11:33:08.391Z,46.73
2018-09-21T11:37:12.181Z,46.93
2018-09-21T11:41:15.711Z,47.46
2018-09-21T11:45:19.210Z,46.23
2018-09-21T11:49:22.753Z,46.22
2018-09-21T11:53:26.273Z,46.73
2018-09-21T11:57:29.939Z,45.28
2018-09-21T12:01:33.426Z,45.46
2018-09-21T12:05:37.033Z,44.49
2018-09-21T12:09:40.473Z,44.56
2018-09-21T12:13:44.014Z,43.73
2018-09-21T12:17:47.501Z,43.41
2018-09-21T12:21:51.151Z,43.02
2018-09-21T12:25:54.694Z,43.80
2018-09-21T12:29:58.184Z,43.72
2018-09-21T12:34:01.803Z,42.61
2018-09-21T12:38:05.395Z,42.69
2018-09-21T12:42:08.910Z,43.86
2018-09-21T12:46:17.182Z,43.12
2018-09-21T12:50:20.839Z,43.94
2018-09-21T12:54:24.337Z,43.97
2018-09-21T12:58:28.389Z,42.81
2018-09-21T13:02:31.801Z,43.21
2018-09-21T13:06:35.544Z,43.11
2018-09-21T13:10:39.138Z,43.31
2018-09-21T13:14:42.570Z,42.77
2018-09-21T13:18:46.794Z,42.83
2018-09-21T13:22:50.553Z,42.97
2018-09-21T13:26:54.173Z,42.28
2018-09-21T13:30:57.651Z,43.13
2018-09-21T13:35:01.615Z,42.31
2018-09-21T13:39:08.162Z,42.60
2018-09-21T13:43:12.832Z,43.54
2018-09-21T13:47:16.423Z,43.54
2018-09-21T13:51:20.454Z,43.49
2018-09-21T13:55:23.896Z,43.13
2018-09-21T13:59:27.574Z,43.26
2018-09-21T14:03:31.254Z,43.57
2018-09-21T14:07:34.733Z,43.39
2018-09-21T14:11:38.306Z,43.24
2018-09-21T14:15:42.042Z,42.77
2018-09-21T14:19:45.568Z,42.44
2018-09-21T14:23:49.174Z,43.05
2018-09-21T14:27:52.867Z,42.91
2018-09-21T14:31:56.335Z,43.63
2018-09-21T14:35:59.938Z,43.45
2018-09-21T14:40:03.816Z,43.06
2018-09-21T14:44:07.560Z,42.63
2018-09-21T14:48:11.051Z,42.49
2018-09-21T14:52:14.481Z,43.19
2018-09-21T14:56:17.982Z,43.55
2018-09-21T15:00:21.848Z,43.42
2018-09-21T15:04:25.391Z,42.99
2018-09-21T15:08:29.012Z,43.47
2018-09-21T15:12:33.922Z,42.96
2018-09-21T15:16:37.893Z,42.76
2018-09-21T15:20:41.274Z,42.92
2018-09-21T15:24:44.857Z,43.29
2018-09-21T15:28:48.780Z,43.71
2018-09-21T15:32:52.529Z,43.31
2018-09-21T15:36:56.079Z,44.06
2018-09-21T15:40:59.615Z,43.75
2018-09-21T15:45:03.331Z,43.96
2018-09-21T15:49:07.456Z,44.07
2018-09-21T15:53:11.057Z,45.07
2018-09-21T15:57:14.531Z,44.26
2018-09-21T16:01:18.027Z,45.25
2018-09-21T16:05:21.533Z,44.78
2018-09-21T16:09:25.142Z,45.74
2018-09-21T16:13:28.590Z,45.39
2018-09-21T16:17:33.298Z,45.88
2018-09-21T16:21:36.795Z,45.54
2018-09-21T16:25:40.372Z,46.78
2018-09-21T16:29:43.975Z,46.13
2018-09-21T16:33:47.552Z,46.65
2018-09-21T16:37:51.428Z,47.17
2018-09-21T16:41:55.078Z,46.85
2018-09-21T16:45:58.898Z,47.05
2018-09-21T16:50:02.374Z,48.22
2018-09-21T16:54:05.979Z,47.58
2018-09-21T16:58:10.598Z,48.54
2018-09-21T17:02:14.394Z,48.86
2018-09-21T17:06:19.018Z,48.23
2018-09-21T17:10:22.463Z,48.54
2018-09-21T17:14:26.696Z,49.33
2018-09-21T17:18:30.133Z,49.42
2018-09-21T17:22:33.818Z,49.02
2018-09-21T17:26:37.369Z,49.18
2018-09-21T17:30:42.100Z,49.88
2018-09-21T17:34:45.694Z,49.92
2018-09-21T17:38:49.234Z,49.78
2018-09-21T17:42:53.718Z,50.48
2018-09-21T17:46:57.330Z,50.70
2018-09-21T17:51:01.286Z,50.75
2018-09-21T17:55:04.766Z,50.53
2018-09-21T17:59:08.659Z,51.13
2018-09-21T18:03:12.360Z,51.27
2018-09-21T18:07:21.065Z,50.62
2018-09-21T18:11:24.570Z,50.73
2018-09-21T18:15:28.050Z,51.65
2018-09-21T18:19:31.615Z,51.68
2018-09-21T18:23:35.396Z,51.06
2018-09-21T18:27:38.963Z,51.86
2018-09-21T18:31:42.450Z,52.04
2018-09-21T18:35:45.969Z,51.32
2018-09-21T18:39:49.518Z,51.55
2018-09-21T18:43:52.986Z,52.12
2018-09-21T18:47:56.937Z,51.66
2018-09-21T18:52:00.526Z,51.63
2018-09-21T18:56:04.012Z,52.34
2018-09-21T19:00:08.189Z,52.81
2018-09-21T19:04:11.829Z,52.68
2018-09-21T19:08:15.682Z,52.93
2018-09-21T19:12:20.161Z,52.91
2018-09-21T19:16:23.864Z,52.53
2018-09-21T19:20:27.344Z,52.39
2018-09-21T19:24:30.877Z,52.62
2018-09-21T19:28:34.501Z,53.42
2018-09-21T19:32:37.959Z,53.50
2018-09-21T19:36:41.439Z,52.92
2018-09-21T19:40:45.177Z,53.67
2018-09-21T19:44:48.881Z,53.88
2018-09-21T19:48:53.010Z,53.78
2018-09-21T19:52:56.689Z,54.08
2018-09-21T19:57:00.174Z,53.63
2018-09-21T20:01:04.089Z,54.56
2018-09-21T20:05:07.697Z,54.60
2018-09-21T20:09:12.596Z,54.02
2018-09-21T20:13:16.411Z,54.98
2018-09-21T20:17:20.580Z,54.39
2018-09-21T20:21:24.178Z,54.63
2018-09-21T20:25:27.895Z,55.46
2018-09-21T20:29:31.539Z,54.85
2018-09-21T20:33:35.846Z,55.66
2018-09-21T20:37:39.593Z,55.18
2018-09-21T20:41:43.075Z,55.49
2018-09-21T20:45:47.578Z,55.84
2018-09-21T20:49:52.066Z,55.60
2018-09-21T20:53:55.599Z,56.58
2018-09-21T20:57:59.306Z,56.72
2018-09-21T21:02:03.227Z,55.98
2018-09-21T21:06:06.804Z,55.96
2018-09-21T21:10:10.285Z,56.38
2018-09-21T21:14:13.846Z,57.25
2018-09-21T21:18:18.497Z,56.60
2018-09-21T21:22:22.482Z,57.71
2018-09-21T21:26:26.105Z,57.78
2018-09-21T21:30:29.834Z,57.23
2018-09-21T21:34:33.354Z,57.22
2018-09-21T21:38:37.106Z,57.70
2018-09-21T21:42:40.592Z,58.47
2018-09-21T21:46:44.051Z,57.81
2018-09-21T21:50:47.553Z,58.65
2018-09-21T21:54:51.086Z,58.84
2018-09-21T21:58:54.636Z,58.75
2018-09-21T22:02:58.181Z,59.49
2018-09-21T22:07:01.742Z,59.49
2018-09-21T22:11:09.681Z,59.20
2018-09-21T22:15:15.633Z,59.71
2018-09-21T22:19:19.033Z,60.71
2018-09-21T22:23:22.636Z,61.36
2018-09-21T22:27:26.177Z,61.82
2018-09-21T22:31:30.073Z,63.50
2018-09-21T22:35:33.663Z,63.90
2018-09-21T22:39:37.194Z,64.56
2018-09-21T22:43:40.776Z,65.89
2018-09-21T22:47:44.205Z,65.63
2018-09-21T22:51:47.678Z,66.38
2018-09-21T22:55:51.181Z,67.84
2018-09-21T22:59:54.736Z,66.59
2018-09-21T23:03:58.285Z,67.07
2018-09-21T23:08:01.735Z,66.96
2018-09-21T23:12:05.197Z,67.39
2018-09-21T23:16:08.686Z,68.43
2018-09-21T23:20:12.295Z,67.10
2018-09-21T23:24:15.834Z,68.07
2018-09-21T23:28:19.348Z,68.25
2018-09-21T23:32:22.970Z,68.49
2018-09-21T23:36:26.489Z,68.12
2018-09-21T23:40:29.981Z,67.89
2018-09-21T23:44:33.425Z,68.49
2018-09-21T23:48:37.052Z,67.92
2018-09-21T23:52:40.526Z,68.01
2018-09-21T23:56:44.232Z,68.61
